sensor_id;sensor_type;location;lat;lon;timestamp;pressure;altitude;pressure_sealevel;temperature;humidity
24610;BME280;12758;47.890;11.694;2023-02-04T00:01:22;94677.97;;;2.75;100.00
24610;BME280;12758;47.890;11.694;2023-02-04T00:03:49;94685.94;;;2.60;100.00
24610;BME280;12758;47.890;11.694;2023-02-04T00:06:16;94683.56;;;2.69;100.00
24610;BME280;12758;47.890;11.694;2023-02-04T00:08:42;94689.13;;;2.62;100.00
24610;BME280;12758;47.890;11.694;2023-02-04T00:11:08;94675.78;;;2.67;100.00
24610;BME280;12758;47.890;11.694;2023-02-04T00:13:34;94687.53;;;2.61;100.00
24610;BME280;12758;47.890;11.694;2023-02-04T00:16:00;94665.59;;;2.69;100.00
24610;BME280;12758;47.890;11.694;2023-02-04T00:18:27;94653.22;;;2.63;100.00
24610;BME280;12758;47.890;11.694;2023-02-04T00:20:53;94652.66;;;2.56;100.00
24610;BME280;12758;47.890;11.694;2023-02-04T00:23:19;94668.72;;;2.56;100.00
24610;BME280;12758;47.890;11.694;2023-02-04T00:25:45;94666.03;;;2.51;100.00
24610;BME280;12758;47.890;11.694;2023-02-04T00:28:11;94651.78;;;2.45;100.00
24610;BME280;12758;47.890;11.694;2023-02-04T00:30:37;94663.31;;;2.46;100.00
24610;BME280;12758;47.890;11.694;2023-02-04T00:33:03;94657.94;;;2.46;100.00
24610;BME280;12758;47.890;11.694;2023-02-04T00:35:29;94651.03;;;2.55;100.00
24610;BME280;12758;47.890;11.694;2023-02-04T00:37:56;94665.50;;;2.54;100.00
24610;BME280;12758;47.890;11.694;2023-02-04T00:40:22;94673.00;;;2.52;100.00
24610;BME280;12758;47.890;11.694;2023-02-04T00:42:48;94687.97;;;2.48;100.00
24610;BME280;12758;47.890;11.694;2023-02-04T00:45:14;94686.34;;;2.47;100.00
24610;BME280;12758;47.890;11.694;2023-02-04T00:47:40;94692.31;;;2.54;100.00
24610;BME280;12758;47.890;11.694;2023-02-04T00:50:06;94693.34;;;2.48;100.00
24610;BME280;12758;47.890;11.694;2023-02-04T00:52:32;94698.19;;;2.51;100.00
24610;BME280;12758;47.890;11.694;2023-02-04T00:54:59;94708.91;;;2.51;100.00
24610;BME280;12758;47.890;11.694;2023-02-04T00:57:25;94678.34;;;2.52;100.00
24610;BME280;12758;47.890;11.694;2023-02-04T00:59:51;94681.94;;;2.30;100.00
24610;BME280;12758;47.890;11.694;2023-02-04T01:02:17;94687.78;;;2.27;100.00
24610;BME280;12758;47.890;11.694;2023-02-04T01:04:43;94711.88;;;2.22;100.00
24610;BME280;12758;47.890;11.694;2023-02-04T01:07:08;94688.91;;;2.31;100.00
24610;BME280;12758;47.890;11.694;2023-02-04T01:09:34;94695.28;;;2.25;100.00
24610;BME280;12758;47.890;11.694;2023-02-04T01:12:01;94697.91;;;2.20;100.00
24610;BME280;12758;47.890;11.694;2023-02-04T01:14:27;94703.47;;;2.14;100.00
24610;BME280;12758;47.890;11.694;2023-02-04T01:16:53;94696.31;;;2.19;100.00
24610;BME280;12758;47.890;11.694;2023-02-04T01:19:19;94701.16;;;2.22;100.00
24610;BME280;12758;47.890;11.694;2023-02-04T01:21:46;94705.38;;;2.18;100.00
24610;BME280;12758;47.890;11.694;2023-02-04T01:24:12;94686.47;;;2.25;100.00
24610;BME280;12758;47.890;11.694;2023-02-04T01:26:38;94694.78;;;2.28;100.00
24610;BME280;12758;47.890;11.694;2023-02-04T01:29:04;94705.22;;;2.25;100.00
24610;BME280;12758;47.890;11.694;2023-02-04T01:31:30;94704.72;;;2.33;100.00
24610;BME280;12758;47.890;11.694;2023-02-04T01:33:58;94686.75;;;2.28;100.00
24610;BME280;12758;47.890;11.694;2023-02-04T01:36:24;94707.16;;;2.35;100.00
24610;BME280;12758;47.890;11.694;2023-02-04T01:38:50;94711.75;;;2.39;100.00
24610;BME280;12758;47.890;11.694;2023-02-04T01:41:16;94716.31;;;2.44;100.00
24610;BME280;12758;47.890;11.694;2023-02-04T01:43:43;94715.72;;;2.37;100.00
24610;BME280;12758;47.890;11.694;2023-02-04T01:46:10;94714.69;;;2.38;100.00
24610;BME280;12758;47.890;11.694;2023-02-04T01:48:36;94715.78;;;2.42;100.00
24610;BME280;12758;47.890;11.694;2023-02-04T01:51:04;94725.91;;;2.35;100.00
24610;BME280;12758;47.890;11.694;2023-02-04T01:53:31;94730.19;;;2.36;100.00
24610;BME280;12758;47.890;11.694;2023-02-04T01:55:57;94741.47;;;2.38;100.00
24610;BME280;12758;47.890;11.694;2023-02-04T01:58:23;94754.31;;;2.36;100.00
24610;BME280;12758;47.890;11.694;2023-02-04T02:00:49;94765.53;;;2.32;100.00
24610;BME280;12758;47.890;11.694;2023-02-04T02:03:16;94768.78;;;2.35;100.00
24610;BME280;12758;47.890;11.694;2023-02-04T02:05:44;94789.06;;;2.30;100.00
24610;BME280;12758;47.890;11.694;2023-02-04T02:08:11;94803.53;;;2.29;100.00
24610;BME280;12758;47.890;11.694;2023-02-04T02:10:38;94818.28;;;2.32;100.00
24610;BME280;12758;47.890;11.694;2023-02-04T02:13:06;94805.63;;;2.27;100.00
24610;BME280;12758;47.890;11.694;2023-02-04T02:15:33;94798.06;;;2.19;100.00
24610;BME280;12758;47.890;11.694;2023-02-04T02:17:59;94795.94;;;2.21;100.00
24610;BME280;12758;47.890;11.694;2023-02-04T02:20:26;94790.38;;;2.28;100.00
24610;BME280;12758;47.890;11.694;2023-02-04T02:23:00;94806.97;;;2.25;100.00
24610;BME280;12758;47.890;11.694;2023-02-04T02:25:29;94819.50;;;2.19;100.00
24610;BME280;12758;47.890;11.694;2023-02-04T02:27:55;94819.59;;;2.02;100.00
24610;BME280;12758;47.890;11.694;2023-02-04T02:30:22;94825.88;;;1.91;100.00
24610;BME280;12758;47.890;11.694;2023-02-04T02:32:48;94819.63;;;1.85;100.00
24610;BME280;12758;47.890;11.694;2023-02-04T02:35:15;94813.09;;;1.98;100.00
24610;BME280;12758;47.890;11.694;2023-02-04T02:37:42;94820.88;;;2.00;100.00
24610;BME280;12758;47.890;11.694;2023-02-04T02:40:09;94827.84;;;2.01;100.00
24610;BME280;12758;47.890;11.694;2023-02-04T02:42:36;94832.59;;;1.94;100.00
24610;BME280;12758;47.890;11.694;2023-02-04T02:45:05;94835.81;;;1.96;100.00
24610;BME280;12758;47.890;11.694;2023-02-04T02:47:33;94844.78;;;1.84;100.00
24610;BME280;12758;47.890;11.694;2023-02-04T02:49:59;94826.25;;;2.00;100.00
24610;BME280;12758;47.890;11.694;2023-02-04T02:52:25;94821.31;;;2.14;100.00
24610;BME280;12758;47.890;11.694;2023-02-04T02:54:51;94855.09;;;1.93;100.00
24610;BME280;12758;47.890;11.694;2023-02-04T02:57:19;94835.06;;;2.22;100.00
24610;BME280;12758;47.890;11.694;2023-02-04T02:59:46;94851.03;;;2.12;100.00
24610;BME280;12758;47.890;11.694;2023-02-04T03:02:15;94866.91;;;1.97;100.00
24610;BME280;12758;47.890;11.694;2023-02-04T03:04:44;94858.00;;;2.13;100.00
24610;BME280;12758;47.890;11.694;2023-02-04T03:07:13;94843.13;;;2.27;100.00
24610;BME280;12758;47.890;11.694;2023-02-04T03:09:39;94847.38;;;2.23;100.00
24610;BME280;12758;47.890;11.694;2023-02-04T03:12:05;94854.53;;;2.18;100.00
24610;BME280;12758;47.890;11.694;2023-02-04T03:14:32;94861.41;;;2.08;100.00
24610;BME280;12758;47.890;11.694;2023-02-04T03:16:59;94857.03;;;2.24;100.00
24610;BME280;12758;47.890;11.694;2023-02-04T03:19:26;94858.00;;;2.13;100.00
24610;BME280;12758;47.890;11.694;2023-02-04T03:21:53;94849.78;;;1.98;100.00
24610;BME280;12758;47.890;11.694;2023-02-04T03:24:20;94858.03;;;2.18;100.00
24610;BME280;12758;47.890;11.694;2023-02-04T03:26:46;94855.59;;;2.39;100.00
24610;BME280;12758;47.890;11.694;2023-02-04T03:29:13;94851.81;;;2.35;100.00
24610;BME280;12758;47.890;11.694;2023-02-04T03:31:38;94862.25;;;2.09;100.00
24610;BME280;12758;47.890;11.694;2023-02-04T03:34:05;94859.19;;;2.00;100.00
24610;BME280;12758;47.890;11.694;2023-02-04T03:36:31;94864.53;;;2.00;100.00
24610;BME280;12758;47.890;11.694;2023-02-04T03:38:57;94871.94;;;2.15;100.00
24610;BME280;12758;47.890;11.694;2023-02-04T03:41:23;94875.44;;;1.94;100.00
24610;BME280;12758;47.890;11.694;2023-02-04T03:43:49;94873.81;;;1.93;100.00
24610;BME280;12758;47.890;11.694;2023-02-04T03:46:15;94876.03;;;2.01;100.00
24610;BME280;12758;47.890;11.694;2023-02-04T03:48:41;94882.56;;;1.88;100.00
24610;BME280;12758;47.890;11.694;2023-02-04T03:51:08;94880.78;;;1.94;100.00
24610;BME280;12758;47.890;11.694;2023-02-04T03:53:34;94881.66;;;1.99;100.00
24610;BME280;12758;47.890;11.694;2023-02-04T03:56:00;94887.25;;;1.98;100.00
24610;BME280;12758;47.890;11.694;2023-02-04T03:58:26;94896.66;;;2.00;100.00
24610;BME280;12758;47.890;11.694;2023-02-04T04:00:52;94895.88;;;2.22;100.00
24610;BME280;12758;47.890;11.694;2023-02-04T04:03:18;94911.28;;;2.37;100.00
24610;BME280;12758;47.890;11.694;2023-02-04T04:05:44;94908.56;;;2.31;100.00
24610;BME280;12758;47.890;11.694;2023-02-04T04:08:11;94916.28;;;2.06;100.00
24610;BME280;12758;47.890;11.694;2023-02-04T04:10:37;94923.06;;;2.14;100.00
24610;BME280;12758;47.890;11.694;2023-02-04T04:13:03;94923.03;;;1.92;100.00
24610;BME280;12758;47.890;11.694;2023-02-04T04:15:29;94920.25;;;2.03;100.00
24610;BME280;12758;47.890;11.694;2023-02-04T04:17:55;94919.63;;;2.18;100.00
24610;BME280;12758;47.890;11.694;2023-02-04T04:20:21;94923.44;;;2.44;100.00
24610;BME280;12758;47.890;11.694;2023-02-04T04:22:49;94926.16;;;2.49;100.00
24610;BME280;12758;47.890;11.694;2023-02-04T04:25:16;94929.22;;;2.58;100.00
24610;BME280;12758;47.890;11.694;2023-02-04T04:27:42;94935.19;;;2.65;100.00
24610;BME280;12758;47.890;11.694;2023-02-04T04:30:09;94935.69;;;2.62;100.00
24610;BME280;12758;47.890;11.694;2023-02-04T04:32:35;94953.34;;;2.36;100.00
24610;BME280;12758;47.890;11.694;2023-02-04T04:35:01;94945.19;;;2.48;100.00
24610;BME280;12758;47.890;11.694;2023-02-04T04:37:28;94955.50;;;2.61;100.00
24610;BME280;12758;47.890;11.694;2023-02-04T04:39:54;94955.22;;;2.58;100.00
24610;BME280;12758;47.890;11.694;2023-02-04T04:42:20;94956.13;;;2.68;100.00
24610;BME280;12758;47.890;11.694;2023-02-04T04:44:46;94962.78;;;2.66;100.00
24610;BME280;12758;47.890;11.694;2023-02-04T04:47:12;94975.56;;;2.80;100.00
24610;BME280;12758;47.890;11.694;2023-02-04T04:49:38;94978.63;;;2.89;100.00
24610;BME280;12758;47.890;11.694;2023-02-04T04:52:04;94978.75;;;2.77;100.00
24610;BME280;12758;47.890;11.694;2023-02-04T04:54:30;94978.44;;;2.52;100.00
24610;BME280;12758;47.890;11.694;2023-02-04T04:56:56;94986.91;;;2.44;100.00
24610;BME280;12758;47.890;11.694;2023-02-04T04:59:23;94982.03;;;2.41;100.00
24610;BME280;12758;47.890;11.694;2023-02-04T05:01:49;94981.44;;;2.33;100.00
24610;BME280;12758;47.890;11.694;2023-02-04T05:04:15;94988.09;;;2.53;100.00
24610;BME280;12758;47.890;11.694;2023-02-04T05:06:41;94988.97;;;2.37;100.00
24610;BME280;12758;47.890;11.694;2023-02-04T05:09:07;94988.16;;;2.58;100.00
24610;BME280;12758;47.890;11.694;2023-02-04T05:11:34;94991.66;;;2.59;100.00
24610;BME280;12758;47.890;11.694;2023-02-04T05:14:00;94989.16;;;2.52;100.00
24610;BME280;12758;47.890;11.694;2023-02-04T05:16:26;94995.63;;;2.56;100.00
24610;BME280;12758;47.890;11.694;2023-02-04T05:18:52;94997.81;;;2.37;100.00
24610;BME280;12758;47.890;11.694;2023-02-04T05:21:18;94999.63;;;2.31;100.00
24610;BME280;12758;47.890;11.694;2023-02-04T05:23:44;94998.13;;;2.41;100.00
24610;BME280;12758;47.890;11.694;2023-02-04T05:26:10;94994.28;;;2.31;100.00
24610;BME280;12758;47.890;11.694;2023-02-04T05:28:36;95005.09;;;2.20;100.00
24610;BME280;12758;47.890;11.694;2023-02-04T05:31:02;95012.81;;;2.16;100.00
24610;BME280;12758;47.890;11.694;2023-02-04T05:33:29;95016.03;;;2.18;100.00
24610;BME280;12758;47.890;11.694;2023-02-04T05:35:55;95019.88;;;2.22;100.00
24610;BME280;12758;47.890;11.694;2023-02-04T05:38:21;95030.81;;;2.21;100.00
24610;BME280;12758;47.890;11.694;2023-02-04T05:40:47;95025.13;;;2.17;100.00
24610;BME280;12758;47.890;11.694;2023-02-04T05:43:13;95037.69;;;2.33;100.00
24610;BME280;12758;47.890;11.694;2023-02-04T05:45:39;95037.63;;;2.28;100.00
24610;BME280;12758;47.890;11.694;2023-02-04T05:48:05;95039.16;;;2.24;100.00
24610;BME280;12758;47.890;11.694;2023-02-04T05:50:31;95047.69;;;2.21;100.00
24610;BME280;12758;47.890;11.694;2023-02-04T05:52:57;95045.59;;;2.23;100.00
24610;BME280;12758;47.890;11.694;2023-02-04T05:55:23;95048.66;;;2.32;100.00
24610;BME280;12758;47.890;11.694;2023-02-04T05:57:49;95049.31;;;2.22;100.00
24610;BME280;12758;47.890;11.694;2023-02-04T06:00:16;95058.88;;;2.18;100.00
24610;BME280;12758;47.890;11.694;2023-02-04T06:02:42;95062.31;;;2.14;100.00
24610;BME280;12758;47.890;11.694;2023-02-04T06:05:08;95065.25;;;2.12;100.00
24610;BME280;12758;47.890;11.694;2023-02-04T06:07:34;95078.06;;;2.10;100.00
24610;BME280;12758;47.890;11.694;2023-02-04T06:10:00;95067.81;;;2.24;100.00
24610;BME280;12758;47.890;11.694;2023-02-04T06:12:26;95075.97;;;2.12;100.00
24610;BME280;12758;47.890;11.694;2023-02-04T06:14:52;95080.97;;;2.08;100.00
24610;BME280;12758;47.890;11.694;2023-02-04T06:17:18;95092.03;;;2.12;100.00
24610;BME280;12758;47.890;11.694;2023-02-04T06:19:44;95089.25;;;2.07;100.00
24610;BME280;12758;47.890;11.694;2023-02-04T06:22:10;95092.91;;;2.01;100.00
24610;BME280;12758;47.890;11.694;2023-02-04T06:24:37;95096.72;;;2.05;100.00
24610;BME280;12758;47.890;11.694;2023-02-04T06:27:03;95092.16;;;2.05;100.00
24610;BME280;12758;47.890;11.694;2023-02-04T06:29:29;95101.59;;;2.08;100.00
24610;BME280;12758;47.890;11.694;2023-02-04T06:31:55;95093.00;;;2.06;100.00
24610;BME280;12758;47.890;11.694;2023-02-04T06:34:21;95096.06;;;2.15;100.00
24610;BME280;12758;47.890;11.694;2023-02-04T06:36:47;95102.75;;;2.12;100.00
24610;BME280;12758;47.890;11.694;2023-02-04T06:39:13;95106.63;;;2.04;100.00
24610;BME280;12758;47.890;11.694;2023-02-04T06:41:39;95115.06;;;2.13;100.00
24610;BME280;12758;47.890;11.694;2023-02-04T06:44:05;95110.19;;;2.10;100.00
24610;BME280;12758;47.890;11.694;2023-02-04T06:46:32;95109.22;;;1.99;100.00
24610;BME280;12758;47.890;11.694;2023-02-04T06:48:58;95112.22;;;2.03;100.00
24610;BME280;12758;47.890;11.694;2023-02-04T06:51:24;95116.53;;;2.04;100.00
24610;BME280;12758;47.890;11.694;2023-02-04T06:53:50;95115.88;;;1.97;100.00
24610;BME280;12758;47.890;11.694;2023-02-04T06:56:17;95117.16;;;2.11;100.00
24610;BME280;12758;47.890;11.694;2023-02-04T06:58:43;95114.00;;;2.14;100.00
24610;BME280;12758;47.890;11.694;2023-02-04T07:01:09;95108.59;;;2.09;100.00
24610;BME280;12758;47.890;11.694;2023-02-04T07:03:35;95114.91;;;2.03;100.00
24610;BME280;12758;47.890;11.694;2023-02-04T07:06:01;95118.06;;;2.00;100.00
24610;BME280;12758;47.890;11.694;2023-02-04T07:08:27;95128.38;;;2.08;100.00
24610;BME280;12758;47.890;11.694;2023-02-04T07:10:53;95130.72;;;2.04;100.00
24610;BME280;12758;47.890;11.694;2023-02-04T07:13:19;95133.06;;;2.01;100.00
24610;BME280;12758;47.890;11.694;2023-02-04T07:15:46;95136.00;;;1.99;100.00
24610;BME280;12758;47.890;11.694;2023-02-04T07:18:12;95141.00;;;1.96;100.00
24610;BME280;12758;47.890;11.694;2023-02-04T07:20:38;95144.25;;;1.98;100.00
24610;BME280;12758;47.890;11.694;2023-02-04T07:23:04;95136.97;;;1.93;100.00
24610;BME280;12758;47.890;11.694;2023-02-04T07:25:30;95140.47;;;1.94;100.00
24610;BME280;12758;47.890;11.694;2023-02-04T07:27:55;95143.13;;;1.94;100.00
24610;BME280;12758;47.890;11.694;2023-02-04T07:30:23;95152.72;;;1.90;100.00
24610;BME280;12758;47.890;11.694;2023-02-04T07:32:50;95147.91;;;1.92;100.00
24610;BME280;12758;47.890;11.694;2023-02-04T07:35:16;95152.22;;;1.93;100.00
24610;BME280;12758;47.890;11.694;2023-02-04T07:37:42;95158.28;;;2.05;100.00
24610;BME280;12758;47.890;11.694;2023-02-04T07:40:10;95167.22;;;1.94;100.00
24610;BME280;12758;47.890;11.694;2023-02-04T07:42:36;95162.63;;;2.06;100.00
24610;BME280;12758;47.890;11.694;2023-02-04T07:45:02;95173.88;;;2.08;100.00
24610;BME280;12758;47.890;11.694;2023-02-04T07:47:28;95171.03;;;1.98;100.00
24610;BME280;12758;47.890;11.694;2023-02-04T07:49:55;95166.28;;;2.17;100.00
24610;BME280;12758;47.890;11.694;2023-02-04T07:52:21;95177.94;;;2.10;100.00
24610;BME280;12758;47.890;11.694;2023-02-04T07:54:47;95179.41;;;2.18;100.00
24610;BME280;12758;47.890;11.694;2023-02-04T07:57:13;95171.53;;;2.12;100.00
24610;BME280;12758;47.890;11.694;2023-02-04T07:59:39;95181.91;;;2.08;100.00
24610;BME280;12758;47.890;11.694;2023-02-04T08:02:06;95185.34;;;2.20;100.00
24610;BME280;12758;47.890;11.694;2023-02-04T08:04:32;95187.63;;;2.28;100.00
24610;BME280;12758;47.890;11.694;2023-02-04T08:06:59;95189.41;;;2.23;100.00
24610;BME280;12758;47.890;11.694;2023-02-04T08:09:24;95189.09;;;2.19;100.00
24610;BME280;12758;47.890;11.694;2023-02-04T08:11:51;95192.31;;;2.21;100.00
24610;BME280;12758;47.890;11.694;2023-02-04T08:14:17;95196.53;;;2.17;100.00
24610;BME280;12758;47.890;11.694;2023-02-04T08:16:43;95200.19;;;2.11;100.00
24610;BME280;12758;47.890;11.694;2023-02-04T08:19:09;95211.00;;;2.16;100.00
24610;BME280;12758;47.890;11.694;2023-02-04T08:21:35;95206.59;;;2.10;100.00
24610;BME280;12758;47.890;11.694;2023-02-04T08:24:02;95210.50;;;2.19;100.00
24610;BME280;12758;47.890;11.694;2023-02-04T08:26:28;95205.81;;;2.26;100.00
24610;BME280;12758;47.890;11.694;2023-02-04T08:28:54;95216.19;;;2.23;100.00
24610;BME280;12758;47.890;11.694;2023-02-04T08:31:20;95220.63;;;2.17;100.00
24610;BME280;12758;47.890;11.694;2023-02-04T08:33:46;95225.44;;;2.15;100.00
24610;BME280;12758;47.890;11.694;2023-02-04T08:36:13;95216.03;;;2.29;100.00
24610;BME280;12758;47.890;11.694;2023-02-04T08:38:38;95222.63;;;2.39;100.00
24610;BME280;12758;47.890;11.694;2023-02-04T08:41:06;95221.38;;;2.29;100.00
24610;BME280;12758;47.890;11.694;2023-02-04T08:43:32;95217.81;;;2.24;100.00
24610;BME280;12758;47.890;11.694;2023-02-04T08:45:58;95216.50;;;2.26;100.00
24610;BME280;12758;47.890;11.694;2023-02-04T08:48:24;95212.22;;;2.25;100.00
24610;BME280;12758;47.890;11.694;2023-02-04T08:50:50;95222.94;;;2.25;100.00
24610;BME280;12758;47.890;11.694;2023-02-04T08:53:16;95222.34;;;2.23;100.00
24610;BME280;12758;47.890;11.694;2023-02-04T08:55:42;95222.44;;;2.28;100.00
24610;BME280;12758;47.890;11.694;2023-02-04T08:58:08;95228.84;;;2.27;100.00
24610;BME280;12758;47.890;11.694;2023-02-04T09:00:34;95245.13;;;2.38;100.00
24610;BME280;12758;47.890;11.694;2023-02-04T09:03:00;95242.34;;;2.32;100.00
24610;BME280;12758;47.890;11.694;2023-02-04T09:05:26;95239.75;;;2.38;100.00
24610;BME280;12758;47.890;11.694;2023-02-04T09:07:52;95239.75;;;2.38;100.00
24610;BME280;12758;47.890;11.694;2023-02-04T09:10:18;95240.41;;;2.45;100.00
24610;BME280;12758;47.890;11.694;2023-02-04T09:12:44;95231.94;;;2.36;100.00
24610;BME280;12758;47.890;11.694;2023-02-04T09:15:11;95239.91;;;2.48;100.00
24610;BME280;12758;47.890;11.694;2023-02-04T09:17:37;95236.81;;;2.56;100.00
24610;BME280;12758;47.890;11.694;2023-02-04T09:20:04;95245.84;;;2.50;100.00
24610;BME280;12758;47.890;11.694;2023-02-04T09:22:30;95247.38;;;2.63;100.00
24610;BME280;12758;47.890;11.694;2023-02-04T09:24:56;95246.56;;;2.62;100.00
24610;BME280;12758;47.890;11.694;2023-02-04T09:27:22;95245.28;;;2.65;100.00
24610;BME280;12758;47.890;11.694;2023-02-04T09:29:48;95259.25;;;2.67;100.00
24610;BME280;12758;47.890;11.694;2023-02-04T09:32:15;95257.06;;;2.64;100.00
24610;BME280;12758;47.890;11.694;2023-02-04T09:34:41;95260.13;;;2.72;100.00
24610;BME280;12758;47.890;11.694;2023-02-04T09:37:07;95269.72;;;2.68;100.00
24610;BME280;12758;47.890;11.694;2023-02-04T09:39:33;95266.56;;;2.71;100.00
24610;BME280;12758;47.890;11.694;2023-02-04T09:41:59;95272.00;;;2.76;100.00
24610;BME280;12758;47.890;11.694;2023-02-04T09:44:25;95281.66;;;2.77;100.00
24610;BME280;12758;47.890;11.694;2023-02-04T09:46:54;95277.88;;;2.73;100.00
24610;BME280;12758;47.890;11.694;2023-02-04T09:49:21;95278.84;;;2.67;100.00
24610;BME280;12758;47.890;11.694;2023-02-04T09:51:47;95279.88;;;2.66;100.00
24610;BME280;12758;47.890;11.694;2023-02-04T09:54:15;95294.44;;;2.70;100.00
24610;BME280;12758;47.890;11.694;2023-02-04T09:56:42;95293.19;;;2.78;100.00
24610;BME280;12758;47.890;11.694;2023-02-04T09:59:10;95291.81;;;2.75;100.00
24610;BME280;12758;47.890;11.694;2023-02-04T10:01:36;95297.59;;;2.67;100.00
24610;BME280;12758;47.890;11.694;2023-02-04T10:04:03;95295.81;;;2.73;100.00
24610;BME280;12758;47.890;11.694;2023-02-04T10:06:29;95294.66;;;2.69;100.00
24610;BME280;12758;47.890;11.694;2023-02-04T10:08:56;95292.31;;;2.72;100.00
24610;BME280;12758;47.890;11.694;2023-02-04T10:11:22;95296.03;;;2.71;100.00
24610;BME280;12758;47.890;11.694;2023-02-04T10:13:50;95289.28;;;2.86;100.00
24610;BME280;12758;47.890;11.694;2023-02-04T10:16:19;95290.44;;;2.90;100.00
24610;BME280;12758;47.890;11.694;2023-02-04T10:18:45;95293.38;;;2.88;100.00
24610;BME280;12758;47.890;11.694;2023-02-04T10:21:14;95287.34;;;2.98;100.00
24610;BME280;12758;47.890;11.694;2023-02-04T10:23:43;95290.19;;;2.91;100.00
24610;BME280;12758;47.890;11.694;2023-02-04T10:26:11;95285.75;;;2.80;100.00
24610;BME280;12758;47.890;11.694;2023-02-04T10:28:38;95291.59;;;2.77;100.00
24610;BME280;12758;47.890;11.694;2023-02-04T10:31:05;95289.22;;;2.80;100.00
24610;BME280;12758;47.890;11.694;2023-02-04T10:33:33;95279.31;;;2.81;100.00
24610;BME280;12758;47.890;11.694;2023-02-04T10:36:03;95288.81;;;2.89;100.00
24610;BME280;12758;47.890;11.694;2023-02-04T10:38:29;95279.25;;;2.93;100.00
24610;BME280;12758;47.890;11.694;2023-02-04T10:41:00;95283.44;;;2.89;100.00
24610;BME280;12758;47.890;11.694;2023-02-04T10:43:26;95280.38;;;2.80;100.00
24610;BME280;12758;47.890;11.694;2023-02-04T10:45:55;95279.47;;;2.74;100.00
24610;BME280;12758;47.890;11.694;2023-02-04T10:48:21;95284.25;;;2.72;100.00
24610;BME280;12758;47.890;11.694;2023-02-04T10:50:48;95277.53;;;2.70;100.00
24610;BME280;12758;47.890;11.694;2023-02-04T10:53:15;95270.38;;;2.75;100.00
24610;BME280;12758;47.890;11.694;2023-02-04T10:56:00;95267.69;;;2.75;100.00
24610;BME280;12758;47.890;11.694;2023-02-04T10:58:29;95265.59;;;2.77;100.00
24610;BME280;12758;47.890;11.694;2023-02-04T11:00:55;95273.31;;;2.74;100.00
24610;BME280;12758;47.890;11.694;2023-02-04T11:03:23;95269.66;;;2.80;100.00
24610;BME280;12758;47.890;11.694;2023-02-04T11:05:50;95275.34;;;2.84;100.00
24610;BME280;12758;47.890;11.694;2023-02-04T11:08:19;95276.94;;;2.85;100.00
24610;BME280;12758;47.890;11.694;2023-02-04T11:10:49;95279.41;;;2.86;100.00
24610;BME280;12758;47.890;11.694;2023-02-04T11:13:21;95276.06;;;2.96;100.00
24610;BME280;12758;47.890;11.694;2023-02-04T11:15:49;95286.69;;;3.08;100.00
24610;BME280;12758;47.890;11.694;2023-02-04T11:18:26;95288.50;;;3.02;100.00
24610;BME280;12758;47.890;11.694;2023-02-04T11:20:54;95292.84;;;3.08;100.00
24610;BME280;12758;47.890;11.694;2023-02-04T11:23:32;95288.16;;;3.15;100.00
24610;BME280;12758;47.890;11.694;2023-02-04T11:26:07;95283.78;;;3.09;100.00
24610;BME280;12758;47.890;11.694;2023-02-04T11:28:44;95283.78;;;3.09;100.00
24610;BME280;12758;47.890;11.694;2023-02-04T11:31:23;95287.94;;;3.00;100.00
24610;BME280;12758;47.890;11.694;2023-02-04T11:34:06;95290.28;;;2.79;100.00
24610;BME280;12758;47.890;11.694;2023-02-04T11:36:33;95291.59;;;2.60;100.00
24610;BME280;12758;47.890;11.694;2023-02-04T11:39:06;95288.31;;;2.92;100.00
24610;BME280;12758;47.890;11.694;2023-02-04T11:41:32;95292.06;;;2.57;100.00
24610;BME280;12758;47.890;11.694;2023-02-04T11:43:59;95298.88;;;2.82;100.00
24610;BME280;12758;47.890;11.694;2023-02-04T11:46:25;95295.31;;;2.93;100.00
24610;BME280;12758;47.890;11.694;2023-02-04T11:48:53;95292.88;;;2.58;100.00
24610;BME280;12758;47.890;11.694;2023-02-04T11:51:23;95284.91;;;2.63;100.00
24610;BME280;12758;47.890;11.694;2023-02-04T11:53:51;95291.31;;;2.45;100.00
24610;BME280;12758;47.890;11.694;2023-02-04T11:56:17;95293.81;;;2.35;100.00
24610;BME280;12758;47.890;11.694;2023-02-04T11:58:44;95290.56;;;2.32;100.00
24610;BME280;12758;47.890;11.694;2023-02-04T12:01:16;95299.66;;;2.31;100.00
24610;BME280;12758;47.890;11.694;2023-02-04T12:03:45;95297.13;;;2.70;100.00
24610;BME280;12758;47.890;11.694;2023-02-04T12:06:19;95302.53;;;2.59;100.00
24610;BME280;12758;47.890;11.694;2023-02-04T12:08:46;95298.13;;;2.36;100.00
24610;BME280;12758;47.890;11.694;2023-02-04T12:11:24;95297.91;;;2.88;100.00
24610;BME280;12758;47.890;11.694;2023-02-04T12:13:53;95303.59;;;3.08;100.00
24610;BME280;12758;47.890;11.694;2023-02-04T12:16:20;95291.56;;;3.11;100.00
24610;BME280;12758;47.890;11.694;2023-02-04T12:18:46;95296.13;;;2.76;100.00
24610;BME280;12758;47.890;11.694;2023-02-04T12:21:12;95292.03;;;2.40;100.00
24610;BME280;12758;47.890;11.694;2023-02-04T12:23:39;95292.34;;;2.44;100.00
24610;BME280;12758;47.890;11.694;2023-02-04T12:26:06;95280.59;;;2.45;100.00
24610;BME280;12758;47.890;11.694;2023-02-04T12:28:33;95294.97;;;2.39;100.00
24610;BME280;12758;47.890;11.694;2023-02-04T12:30:59;95284.41;;;2.49;100.00
24610;BME280;12758;47.890;11.694;2023-02-04T12:33:26;95287.34;;;2.64;100.00
24610;BME280;12758;47.890;11.694;2023-02-04T12:35:52;95290.56;;;2.32;100.00
24610;BME280;12758;47.890;11.694;2023-02-04T12:38:19;95280.50;;;2.40;100.00
24610;BME280;12758;47.890;11.694;2023-02-04T12:40:45;95281.28;;;2.23;100.00
24610;BME280;12758;47.890;11.694;2023-02-04T12:43:11;95282.91;;;2.24;100.00
24610;BME280;12758;47.890;11.694;2023-02-04T12:45:37;95294.72;;;2.12;100.00
24610;BME280;12758;47.890;11.694;2023-02-04T12:48:04;95291.50;;;1.98;100.00